Midelt, Morocco
Current Conditions -  °F | °C
As of 8:00 AM on Tuesday 21 Oct 2014 (Local Time) from GMFK Reporting Station
Clear Clear  
Wind Chill: 61°   Ceiling: Unl
Heat Index: 61°   Visibility: 6mi
Dew Point: 37°   Wind: 0mph
Humidity: 42%   Direction: NA
Pressure: 30.36"   Gusts: NA
Location:  32.7°N, 4.74°W
Report Text: GMFK 210700Z 00000KT CAVOK 16/03 Q1028 NOSIG
Loading
Personal Weather Stations






























Interactive Weather Map
Tropical Storm Tracking
New forecast layout! Learn more

10-Day Weather Forecast

Advertisements
Track Severe Weather on mobile